Time;durP1;ratioP1;P1;durP2;ratioP2;P2;SDS_P1;SDS_P2;PMS_P1;PMS_P2;Temp;Humidity;BMP_temperature;BMP_pressure;BME280_temperature;BME280_humidity;BME280_pressure;Samples;Min_cycle;Max_cycle;Signal;HPM_P1;HPM_P2
2023/01/02 00:00:41;;;;;;;11.90;4.80;;;;;;;;;;5026166;28;20036;-64
2023/01/02 00:03:06;;;;;;;13.40;4.68;;;;;;;;;;5010687;28;20026;-64
2023/01/02 00:05:31;;;;;;;11.85;4.45;;;;;;;;;;5019185;28;20366;-64
2023/01/02 00:07:57;;;;;;;11.73;4.28;;;;;;;;;;5016654;28;20029;-66
2023/01/02 00:10:22;;;;;;;10.45;4.45;;;;;;;;;;5028000;28;20045;-65
2023/01/02 00:12:47;;;;;;;12.27;4.47;;;;;;;;;;5012314;28;20496;-66
2023/01/02 00:15:12;;;;;;;13.87;4.87;;;;;;;;;;5010545;28;20473;-65
2023/01/02 00:17:37;;;;;;;13.27;4.45;;;;;;;;;;5026796;28;20108;-65
2023/01/02 00:20:03;;;;;;;10.17;4.00;;;;;;;;;;5016220;28;20017;-64
2023/01/02 00:22:28;;;;;;;9.60;4.18;;;;;;;;;;5017330;28;20018;-63
2023/01/02 00:24:53;;;;;;;9.52;4.03;;;;;;;;;;5023424;28;20067;-64
2023/01/02 00:27:18;;;;;;;9.10;3.83;;;;;;;;;;5019992;28;20044;-64
2023/01/02 00:29:43;;;;;;;8.65;3.95;;;;;;;;;;5024461;28;20341;-65
2023/01/02 00:32:08;;;;;;;9.30;4.20;;;;;;;;;;5027431;28;20115;-65
2023/01/02 00:34:33;;;;;;;10.93;4.53;;;;;;;;;;5017645;28;20033;-65
2023/01/02 00:36:59;;;;;;;10.15;4.32;;;;;;;;;;5018443;28;20469;-65
2023/01/02 00:39:24;;;;;;;13.02;4.50;;;;;;;;;;5033804;28;20045;-64
2023/01/02 00:41:49;;;;;;;13.25;4.18;;;;;;;;;;5032389;28;20037;-66
2023/01/02 00:44:14;;;;;;;10.90;3.70;;;;;;;;;;5026261;28;20496;-65
2023/01/02 00:46:39;;;;;;;11.13;4.13;;;;;;;;;;5026703;28;20018;-65
2023/01/02 00:49:04;;;;;;;9.97;4.37;;;;;;;;;;5021269;28;20034;-65
2023/01/02 00:51:30;;;;;;;11.60;4.50;;;;;;;;;;5011836;28;20108;-66
2023/01/02 00:53:55;;;;;;;12.97;4.10;;;;;;;;;;5017755;28;20025;-64
2023/01/02 00:56:20;;;;;;;14.73;4.10;;;;;;;;;;5014038;28;20040;-64
2023/01/02 00:58:45;;;;;;;10.73;3.92;;;;;;;;;;5018449;28;20499;-64
2023/01/02 01:01:10;;;;;;;10.10;3.90;;;;;;;;;;5026423;28;20646;-65
2023/01/02 01:03:35;;;;;;;9.05;3.78;;;;;;;;;;5032696;28;20423;-65
2023/01/02 01:06:07;;;;;;;10.50;3.70;;;;;;;;;;5029238;28;20476;-65
2023/01/02 01:08:33;;;;;;;8.25;3.67;;;;;;;;;;5028720;28;20393;-65
2023/01/02 01:11:03;;;;;;;10.65;3.90;;;;;;;;;;5016896;28;20049;-65
2023/01/02 01:13:28;;;;;;;10.57;3.92;;;;;;;;;;5028717;28;20052;-65
2023/01/02 01:15:53;;;;;;;10.73;3.88;;;;;;;;;;5023716;28;20029;-64
2023/01/02 01:18:18;;;;;;;9.10;3.88;;;;;;;;;;5027070;28;20116;-64
2023/01/02 01:20:43;;;;;;;10.50;3.85;;;;;;;;;;5021991;28;20108;-64
2023/01/02 01:23:08;;;;;;;10.45;3.67;;;;;;;;;;5020511;28;20029;-65
2023/01/02 01:25:35;;;;;;;8.27;3.70;;;;;;;;;;5022423;28;20053;-64
2023/01/02 01:28:00;;;;;;;9.68;3.90;;;;;;;;;;5017319;28;20032;-64
2023/01/02 01:30:26;;;;;;;10.45;4.20;;;;;;;;;;5027904;28;20033;-63
2023/01/02 01:32:51;;;;;;;9.15;3.97;;;;;;;;;;5029816;28;20029;-63
2023/01/02 01:35:17;;;;;;;10.07;3.85;;;;;;;;;;5016782;28;20075;-64
2023/01/02 01:37:42;;;;;;;11.52;4.30;;;;;;;;;;5024112;28;20033;-63
2023/01/02 01:40:07;;;;;;;9.35;3.78;;;;;;;;;;5013195;28;20473;-64
2023/01/02 01:42:33;;;;;;;12.75;4.05;;;;;;;;;;5029262;28;20022;-65
2023/01/02 01:44:58;;;;;;;11.48;4.53;;;;;;;;;;5028049;28;20049;-65
2023/01/02 01:47:32;;;;;;;9.93;4.30;;;;;;;;;;5018682;28;20108;-63
2023/01/02 01:50:01;;;;;;;9.75;3.92;;;;;;;;;;5019697;28;20053;-64
2023/01/02 01:52:28;;;;;;;12.35;4.45;;;;;;;;;;5013461;28;20022;-65
2023/01/02 01:55:00;;;;;;;11.52;4.15;;;;;;;;;;5025492;28;20037;-64
2023/01/02 01:57:45;;;;;;;9.48;4.00;;;;;;;;;;5018249;28;20109;-64
2023/01/02 02:00:11;;;;;;;12.10;4.88;;;;;;;;;;5023824;28;20186;-65
2023/01/02 02:02:38;;;;;;;11.43;4.15;;;;;;;;;;5024764;28;20673;-65
2023/01/02 02:05:04;;;;;;;11.77;4.60;;;;;;;;;;5017452;28;20464;-65
2023/01/02 02:07:30;;;;;;;11.40;4.50;;;;;;;;;;5031777;28;20037;-65
2023/01/02 02:09:59;;;;;;;11.10;4.03;;;;;;;;;;5016188;28;20072;-65
2023/01/02 02:12:24;;;;;;;10.25;4.40;;;;;;;;;;5032334;28;20098;-64
2023/01/02 02:14:49;;;;;;;9.90;4.78;;;;;;;;;;5018461;28;20504;-65
2023/01/02 02:17:33;;;;;;;10.35;4.57;;;;;;;;;;5017170;28;20038;-65
2023/01/02 02:19:58;;;;;;;;;;;;;;;;;;5029579;28;20105;-64
2023/01/02 02:22:24;;;;;;;10.98;4.55;;;;;;;;;;5031428;28;20007;-64
2023/01/02 02:25:01;;;;;;;9.32;4.22;;;;;;;;;;5022059;28;20104;-64
2023/01/02 02:27:35;;;;;;;11.10;4.82;;;;;;;;;;5020844;28;20022;-64
2023/01/02 02:30:01;;;;;;;10.60;4.47;;;;;;;;;;5022862;28;20040;-64
2023/01/02 02:32:35;;;;;;;12.65;4.90;;;;;;;;;;5014749;28;20439;-64
2023/01/02 02:35:00;;;;;;;10.07;4.15;;;;;;;;;;5018711;28;20017;-65
2023/01/02 02:37:36;;;;;;;11.52;4.57;;;;;;;;;;5023237;28;20029;-63
2023/01/02 02:40:18;;;;;;;12.55;4.40;;;;;;;;;;5025547;28;20442;-64
2023/01/02 02:42:46;;;;;;;11.93;4.60;;;;;;;;;;5015468;28;20041;-65
2023/01/02 02:45:30;;;;;;;12.48;4.25;;;;;;;;;;5012401;28;20025;-64
2023/01/02 02:47:55;;;;;;;;;;;;;;;;;;5012578;28;20018;-64
2023/01/02 02:50:20;;;;;;;9.40;4.20;;;;;;;;;;5012181;28;19920;-64
2023/01/02 02:52:49;;;;;;;10.27;4.20;;;;;;;;;;5013716;28;20041;-64
2023/01/02 02:55:34;;;;;;;12.45;5.18;;;;;;;;;;5028446;28;20041;-64
2023/01/02 02:58:00;;;;;;;12.40;5.10;;;;;;;;;;5027981;28;20095;-64
2023/01/02 03:00:25;;;;;;;12.05;4.68;;;;;;;;;;5014787;28;20025;-64
2023/01/02 03:02:51;;;;;;;11.30;5.00;;;;;;;;;;5017242;28;20030;-63
2023/01/02 03:05:22;;;;;;;10.57;4.63;;;;;;;;;;5012025;28;20385;-64
2023/01/02 03:08:10;;;;;;;11.15;4.50;;;;;;;;;;5017791;28;20032;-64
2023/01/02 03:10:38;;;;;;;12.13;4.78;;;;;;;;;;5018961;28;20036;-63
2023/01/02 03:13:11;;;;;;;11.13;4.85;;;;;;;;;;5024435;28;20099;-64
2023/01/02 03:15:36;;;;;;;11.50;4.28;;;;;;;;;;5028484;28;20079;-64
2023/01/02 03:18:01;;;;;;;10.80;4.35;;;;;;;;;;5019704;28;20034;-63
2023/01/02 03:20:30;;;;;;;12.90;5.05;;;;;;;;;;5015282;28;20080;-64
2023/01/02 03:22:59;;;;;;;13.27;5.07;;;;;;;;;;5013356;28;20025;-63
2023/01/02 03:25:24;;;;;;;11.02;4.60;;;;;;;;;;5021984;28;20124;-64
2023/01/02 03:27:50;;;;;;;11.07;4.97;;;;;;;;;;5016459;28;20436;-64
2023/01/02 03:30:20;;;;;;;11.27;4.38;;;;;;;;;;5026446;28;20462;-64
2023/01/02 03:32:56;;;;;;;10.70;4.68;;;;;;;;;;5030063;28;20032;-64
2023/01/02 03:35:31;;;;;;;10.18;4.50;;;;;;;;;;5026926;28;20037;-64
2023/01/02 03:37:58;;;;;;;10.88;4.35;;;;;;;;;;5013453;28;20033;-64
2023/01/02 03:40:29;;;;;;;10.93;4.60;;;;;;;;;;5013835;28;20491;-64
2023/01/02 03:43:00;;;;;;;10.40;4.78;;;;;;;;;;5019072;28;20451;-64
2023/01/02 03:45:30;;;;;;;11.35;4.35;;;;;;;;;;5020781;28;20610;-64
2023/01/02 03:48:12;;;;;;;9.90;4.22;;;;;;;;;;5020444;28;20477;-65
2023/01/02 03:50:44;;;;;;;11.15;4.60;;;;;;;;;;5023288;28;20025;-65
2023/01/02 03:53:09;;;;;;;11.20;4.28;;;;;;;;;;5022476;28;20431;-65
2023/01/02 03:55:35;;;;;;;11.95;5.03;;;;;;;;;;5028520;28;20052;-65
2023/01/02 03:58:09;;;;;;;10.02;4.18;;;;;;;;;;5016491;28;20125;-64
2023/01/02 04:00:37;;;;;;;11.05;4.63;;;;;;;;;;5028065;28;20096;-64
2023/01/02 04:03:25;;;;;;;10.35;4.13;;;;;;;;;;5012530;28;20116;-65
2023/01/02 04:05:55;;;;;;;9.18;4.10;;;;;;;;;;5029075;28;20554;-65
2023/01/02 04:08:24;;;;;;;10.23;4.40;;;;;;;;;;5027419;28;20037;-64
2023/01/02 04:10:51;;;;;;;14.30;5.82;;;;;;;;;;5012982;28;20356;-64
2023/01/02 04:13:19;;;;;;;12.00;5.07;;;;;;;;;;5018234;28;20099;-64
2023/01/02 04:15:46;;;;;;;11.18;4.53;;;;;;;;;;5015989;28;20326;-63
2023/01/02 04:18:11;;;;;;;;;;;;;;;;;;5011146;28;20041;-64
2023/01/02 04:20:40;;;;;;;11.63;4.68;;;;;;;;;;5010507;28;19906;-64
2023/01/02 04:23:08;;;;;;;11.48;4.60;;;;;;;;;;5025104;28;20105;-64
2023/01/02 04:25:59;;;;;;;11.88;4.80;;;;;;;;;;5028627;28;20022;-64
2023/01/02 04:28:28;;;;;;;12.95;4.90;;;;;;;;;;5013850;28;20095;-64
2023/01/02 04:30:57;;;;;;;10.63;5.22;;;;;;;;;;5023718;28;20021;-65
2023/01/02 04:33:23;;;;;;;14.15;5.20;;;;;;;;;;5019912;28;20473;-64
2023/01/02 04:35:48;;;;;;;13.98;5.40;;;;;;;;;;5027111;28;20072;-64
2023/01/02 04:38:14;;;;;;;10.60;4.87;;;;;;;;;;5021975;28;20021;-65
2023/01/02 04:40:39;;;;;;;13.98;4.78;;;;;;;;;;5022484;28;20030;-65
2023/01/02 04:43:11;;;;;;;11.18;4.75;;;;;;;;;;5023139;28;20049;-64
2023/01/02 04:45:36;;;;;;;11.30;5.18;;;;;;;;;;5021930;28;20574;-64
2023/01/02 04:48:01;;;;;;;11.10;5.10;;;;;;;;;;5022670;28;20057;-64
2023/01/02 04:50:26;;;;;;;11.20;5.03;;;;;;;;;;5015221;28;20037;-64
2023/01/02 04:52:52;;;;;;;13.32;5.10;;;;;;;;;;5026767;28;20112;-63
2023/01/02 04:55:17;;;;;;;12.30;5.37;;;;;;;;;;5023634;28;20512;-64
2023/01/02 04:57:42;;;;;;;15.88;5.57;;;;;;;;;;5013122;28;20067;-64
2023/01/02 05:00:07;;;;;;;12.10;4.95;;;;;;;;;;5018205;28;20029;-64
2023/01/02 05:02:33;;;;;;;10.85;5.15;;;;;;;;;;5015176;28;20366;-64
2023/01/02 05:04:58;;;;;;;10.93;5.18;;;;;;;;;;5021011;28;20075;-64
2023/01/02 05:07:23;;;;;;;14.45;5.15;;;;;;;;;;5026894;28;20018;-64
2023/01/02 05:09:49;;;;;;;11.63;5.40;;;;;;;;;;5026469;28;20026;-64
2023/01/02 05:12:14;;;;;;;13.48;6.15;;;;;;;;;;5011335;28;20448;-64
2023/01/02 05:14:39;;;;;;;13.00;5.57;;;;;;;;;;5016059;28;20032;-64
2023/01/02 05:17:04;;;;;;;13.18;5.50;;;;;;;;;;5015651;28;20045;-65
2023/01/02 05:19:29;;;;;;;13.07;6.05;;;;;;;;;;5018626;28;20504;-64
2023/01/02 05:24:38;;;;;;;;;;;;;;;;;;5022112;28;20087;-64
2023/01/02 05:27:03;;;;;;;18.40;6.18;;;;;;;;;;5031561;28;19941;-64
2023/01/02 05:29:28;;;;;;;12.75;5.32;;;;;;;;;;5029119;28;20514;-63
2023/01/02 05:31:54;;;;;;;13.43;5.50;;;;;;;;;;5025674;28;20029;-66
2023/01/02 05:34:19;;;;;;;12.87;5.70;;;;;;;;;;5031363;28;20033;-63
2023/01/02 05:36:44;;;;;;;11.57;6.07;;;;;;;;;;5027510;28;20499;-63
2023/01/02 05:39:13;;;;;;;11.65;5.70;;;;;;;;;;5022862;28;20025;-64
2023/01/02 05:41:38;;;;;;;13.60;5.35;;;;;;;;;;5027235;28;20022;-64
2023/01/02 05:44:04;;;;;;;10.98;5.50;;;;;;;;;;5017973;28;20357;-64
2023/01/02 05:46:29;;;;;;;13.90;5.78;;;;;;;;;;5018496;28;20504;-64
2023/01/02 05:48:54;;;;;;;14.50;6.38;;;;;;;;;;5017804;28;20389;-64
2023/01/02 05:51:19;;;;;;;13.23;5.90;;;;;;;;;;5016195;28;20104;-64
2023/01/02 05:53:44;;;;;;;13.23;5.50;;;;;;;;;;5023919;28;20041;-64
2023/01/02 05:56:14;;;;;;;16.20;5.67;;;;;;;;;;5031387;28;20104;-64
2023/01/02 05:58:41;;;;;;;14.10;5.45;;;;;;;;;;5032218;28;20025;-64
2023/01/02 06:01:07;;;;;;;12.73;5.50;;;;;;;;;;5023985;28;20018;-64
2023/01/02 06:03:32;;;;;;;12.43;5.35;;;;;;;;;;5016298;28;20112;-65
2023/01/02 06:06:01;;;;;;;10.25;5.53;;;;;;;;;;5024924;28;20057;-65
2023/01/02 06:08:26;;;;;;;11.90;5.15;;;;;;;;;;5026264;28;20026;-65
2023/01/02 06:10:51;;;;;;;13.73;5.88;;;;;;;;;;5027378;28;20052;-65
2023/01/02 06:13:16;;;;;;;13.10;5.07;;;;;;;;;;5026276;28;20104;-64
2023/01/02 06:15:41;;;;;;;13.33;5.47;;;;;;;;;;5026348;28;20034;-65
2023/01/02 06:18:07;;;;;;;14.95;5.55;;;;;;;;;;5027255;28;20096;-65
2023/01/02 06:20:32;;;;;;;12.13;5.30;;;;;;;;;;5030010;28;20034;-66
2023/01/02 06:22:57;;;;;;;13.20;6.07;;;;;;;;;;5026380;28;20381;-64
2023/01/02 06:25:22;;;;;;;10.32;5.63;;;;;;;;;;5030495;28;20053;-65
2023/01/02 06:27:47;;;;;;;12.77;5.87;;;;;;;;;;5022304;28;20030;-64
2023/01/02 06:30:12;;;;;;;13.77;6.22;;;;;;;;;;5022393;28;20422;-64
2023/01/02 06:32:38;;;;;;;13.20;6.07;;;;;;;;;;5022835;28;20093;-64
2023/01/02 06:35:03;;;;;;;16.40;5.75;;;;;;;;;;5021333;28;20026;-64
2023/01/02 06:37:28;;;;;;;12.80;5.28;;;;;;;;;;5027505;28;20030;-65
2023/01/02 06:39:53;;;;;;;13.38;6.13;;;;;;;;;;5043796;28;20017;-62
2023/01/02 06:42:18;;;;;;;11.45;5.35;;;;;;;;;;5019991;28;20492;-63
2023/01/02 06:44:44;;;;;;;13.90;5.85;;;;;;;;;;5022501;28;20025;-64
2023/01/02 06:47:09;;;;;;;14.65;6.38;;;;;;;;;;5012364;28;20027;-64
2023/01/02 06:49:34;;;;;;;14.98;6.03;;;;;;;;;;5026596;28;20500;-64
2023/01/02 06:51:59;;;;;;;14.65;6.15;;;;;;;;;;5011851;28;20046;-64
2023/01/02 06:54:24;;;;;;;17.65;6.22;;;;;;;;;;5012930;28;20026;-65
2023/01/02 06:56:49;;;;;;;17.52;6.90;;;;;;;;;;5008527;28;20174;-64
2023/01/02 06:59:14;;;;;;;15.02;6.43;;;;;;;;;;5015014;28;20032;-64
2023/01/02 07:01:40;;;;;;;14.82;6.22;;;;;;;;;;5012649;28;20038;-63
2023/01/02 07:04:05;;;;;;;14.80;6.65;;;;;;;;;;5008770;28;20109;-63
2023/01/02 07:06:30;;;;;;;17.42;6.68;;;;;;;;;;5016312;28;20057;-64
2023/01/02 07:08:55;;;;;;;15.27;6.80;;;;;;;;;;5010012;28;20032;-65
2023/01/02 07:11:22;;;;;;;14.60;6.50;;;;;;;;;;5007604;28;20378;-65
2023/01/02 07:13:48;;;;;;;16.27;6.80;;;;;;;;;;5020988;28;20056;-64
2023/01/02 07:16:14;;;;;;;16.70;6.35;;;;;;;;;;5009924;28;20117;-64
2023/01/02 07:18:40;;;;;;;14.10;6.45;;;;;;;;;;5021747;28;20025;-64
2023/01/02 07:21:06;;;;;;;15.57;7.07;;;;;;;;;;5022957;28;20026;-64
2023/01/02 07:23:32;;;;;;;16.80;6.60;;;;;;;;;;5026368;28;20038;-65
2023/01/02 07:25:58;;;;;;;16.17;6.57;;;;;;;;;;5028087;28;20112;-65
2023/01/02 07:28:23;;;;;;;15.27;6.78;;;;;;;;;;5017871;28;20184;-65
2023/01/02 07:30:49;;;;;;;14.68;6.75;;;;;;;;;;5018230;28;20459;-65
2023/01/02 07:33:14;;;;;;;13.93;6.53;;;;;;;;;;5021480;28;20090;-65
2023/01/02 07:35:39;;;;;;;14.10;6.20;;;;;;;;;;5011622;28;20028;-65
2023/01/02 07:38:05;;;;;;;14.87;6.10;;;;;;;;;;5012382;28;20028;-66
2023/01/02 07:40:31;;;;;;;16.48;6.53;;;;;;;;;;5024064;28;20459;-64
2023/01/02 07:42:56;;;;;;;12.68;6.30;;;;;;;;;;5017819;28;20017;-64
2023/01/02 07:45:21;;;;;;;13.45;6.38;;;;;;;;;;5018287;28;20047;-64
2023/01/02 07:47:46;;;;;;;15.35;6.78;;;;;;;;;;5020388;28;20490;-62
2023/01/02 07:50:11;;;;;;;12.68;5.80;;;;;;;;;;5025994;28;20120;-63
2023/01/02 07:52:37;;;;;;;13.10;6.20;;;;;;;;;;5020940;28;20040;-63
2023/01/02 07:55:02;;;;;;;14.57;6.05;;;;;;;;;;5025007;28;20120;-64
2023/01/02 07:57:30;;;;;;;12.13;6.13;;;;;;;;;;5025334;28;20095;-64
2023/01/02 07:59:56;;;;;;;17.05;6.28;;;;;;;;;;5027344;28;20661;-65
2023/01/02 08:02:21;;;;;;;13.10;6.13;;;;;;;;;;5024732;28;20071;-65
2023/01/02 08:04:46;;;;;;;13.75;6.25;;;;;;;;;;5026748;28;20030;-64
2023/01/02 08:07:11;;;;;;;13.13;6.50;;;;;;;;;;5026486;28;20041;-64
2023/01/02 08:09:36;;;;;;;15.37;6.90;;;;;;;;;;5010877;28;20164;-64
2023/01/02 08:12:01;;;;;;;12.43;6.32;;;;;;;;;;5013944;28;20032;-64
2023/01/02 08:14:26;;;;;;;16.38;6.30;;;;;;;;;;5020203;28;20054;-64
2023/01/02 08:16:52;;;;;;;14.93;6.82;;;;;;;;;;5020772;28;20148;-63
2023/01/02 08:19:17;;;;;;;14.20;6.20;;;;;;;;;;5023387;28;20033;-64
2023/01/02 08:21:42;;;;;;;13.02;5.75;;;;;;;;;;5020852;28;20044;-62
2023/01/02 08:24:07;;;;;;;13.77;6.05;;;;;;;;;;5019491;28;20109;-64
2023/01/02 08:26:32;;;;;;;14.00;6.00;;;;;;;;;;5032632;28;20021;-64
2023/01/02 08:28:58;;;;;;;11.97;5.77;;;;;;;;;;5020571;28;20036;-64
2023/01/02 08:31:23;;;;;;;13.65;6.15;;;;;;;;;;5031072;28;20444;-64
2023/01/02 08:33:48;;;;;;;13.77;6.83;;;;;;;;;;5025504;28;20508;-64
2023/01/02 08:36:14;;;;;;;13.77;6.27;;;;;;;;;;5027426;28;20029;-64
2023/01/02 08:38:39;;;;;;;12.90;6.57;;;;;;;;;;5026013;28;20022;-64
2023/01/02 08:41:04;;;;;;;13.60;5.90;;;;;;;;;;5025524;28;21101;-62
2023/01/02 08:43:31;;;;;;;13.93;6.22;;;;;;;;;;5027254;28;20488;-63
2023/01/02 08:45:57;;;;;;;11.80;5.82;;;;;;;;;;5025622;28;20026;-65
2023/01/02 08:48:22;;;;;;;13.10;6.10;;;;;;;;;;5018576;28;20484;-64
2023/01/02 08:50:50;;;;;;;13.40;6.10;;;;;;;;;;5009156;28;20120;-64
2023/01/02 08:53:16;;;;;;;12.57;6.07;;;;;;;;;;5011068;28;20440;-62
2023/01/02 08:55:41;;;;;;;13.18;6.10;;;;;;;;;;5030144;28;20029;-64
2023/01/02 08:58:06;;;;;;;12.50;5.53;;;;;;;;;;5014244;28;20029;-64
2023/01/02 09:00:31;;;;;;;12.68;5.53;;;;;;;;;;5015667;28;20147;-62
2023/01/02 09:02:56;;;;;;;13.30;5.95;;;;;;;;;;5028037;28;20026;-61
2023/01/02 09:05:22;;;;;;;10.93;5.57;;;;;;;;;;5027217;28;20480;-61
2023/01/02 09:07:47;;;;;;;12.07;5.47;;;;;;;;;;5025019;28;20431;-61
2023/01/02 09:10:12;;;;;;;13.50;5.77;;;;;;;;;;5014718;28;20041;-62
2023/01/02 09:12:37;;;;;;;12.40;5.87;;;;;;;;;;5027936;28;20118;-61
2023/01/02 09:15:03;;;;;;;13.70;5.67;;;;;;;;;;5013719;28;20037;-61
2023/01/02 09:17:28;;;;;;;14.65;6.13;;;;;;;;;;5019867;28;20441;-62
2023/01/02 09:19:53;;;;;;;13.90;5.63;;;;;;;;;;5031774;28;20518;-62
2023/01/02 09:22:18;;;;;;;13.02;5.30;;;;;;;;;;5033044;28;20017;-62
2023/01/02 09:24:43;;;;;;;13.93;5.57;;;;;;;;;;5033715;28;20162;-61
2023/01/02 09:27:09;;;;;;;13.10;5.50;;;;;;;;;;5033528;28;20443;-61
2023/01/02 09:29:35;;;;;;;11.05;4.95;;;;;;;;;;5026177;28;20013;-61
2023/01/02 09:32:00;;;;;;;11.00;6.30;;;;;;;;;;5031638;28;20413;-61
2023/01/02 09:34:25;;;;;;;12.50;5.03;;;;;;;;;;5033341;28;20025;-61
2023/01/02 09:36:50;;;;;;;10.85;5.05;;;;;;;;;;5033347;28;20060;-61
2023/01/02 09:39:15;;;;;;;10.90;5.07;;;;;;;;;;5029297;28;20025;-62
2023/01/02 09:41:40;;;;;;;10.77;4.80;;;;;;;;;;5013138;28;20045;-62
2023/01/02 09:44:10;;;;;;;10.93;4.97;;;;;;;;;;5013205;28;20024;-61
2023/01/02 09:46:53;;;;;;;13.55;5.05;;;;;;;;;;5017974;28;20068;-62
2023/01/02 09:49:21;;;;;;;10.40;5.50;;;;;;;;;;5031287;28;20442;-61
2023/01/02 09:51:46;;;;;;;11.65;5.07;;;;;;;;;;5032045;28;20021;-61
2023/01/02 09:54:38;;;;;;;9.82;4.97;;;;;;;;;;5032667;28;20138;-61
2023/01/02 09:57:15;;;;;;;10.00;5.03;;;;;;;;;;5032595;28;20469;-61
2023/01/02 09:59:43;;;;;;;11.82;5.10;;;;;;;;;;5033014;28;20108;-62
2023/01/02 10:02:13;;;;;;;12.55;5.10;;;;;;;;;;5030987;28;20036;-61
2023/01/02 10:04:45;;;;;;;13.32;5.45;;;;;;;;;;5032752;28;20031;-62
2023/01/02 10:07:12;;;;;;;11.63;5.57;;;;;;;;;;5032839;28;20080;-60
2023/01/02 10:09:45;;;;;;;11.75;5.30;;;;;;;;;;5032582;28;20040;-61
2023/01/02 10:12:14;;;;;;;10.00;4.97;;;;;;;;;;5031412;28;20096;-61
2023/01/02 10:14:56;;;;;;;10.88;5.30;;;;;;;;;;5017810;28;20045;-62
2023/01/02 10:17:22;;;;;;;10.88;5.10;;;;;;;;;;5011976;28;20038;-61
2023/01/02 10:19:49;;;;;;;10.73;5.13;;;;;;;;;;5012027;28;20018;-61
2023/01/02 10:22:17;;;;;;;10.82;5.05;;;;;;;;;;5021082;28;20037;-61
2023/01/02 10:25:04;;;;;;;9.73;5.00;;;;;;;;;;5031662;28;20025;-61
2023/01/02 10:27:32;;;;;;;11.23;4.75;;;;;;;;;;5031749;28;20017;-62
2023/01/02 10:30:03;;;;;;;11.88;5.28;;;;;;;;;;5030436;28;20017;-61
2023/01/02 10:32:30;;;;;;;9.40;5.03;;;;;;;;;;5029536;28;20439;-61
2023/01/02 10:34:55;;;;;;;;;;;;;;;;;;5032309;28;20022;-61
2023/01/02 10:37:20;;;;;;;10.05;4.85;;;;;;;;;;5031427;28;19951;-61
2023/01/02 10:39:48;;;;;;;11.37;5.10;;;;;;;;;;5031387;28;20112;-62
2023/01/02 10:42:14;;;;;;;12.27;5.45;;;;;;;;;;5030109;28;20109;-61
2023/01/02 10:44:40;;;;;;;10.88;5.05;;;;;;;;;;5016450;28;20088;-61
2023/01/02 10:47:11;;;;;;;11.23;4.93;;;;;;;;;;5011603;28;20030;-60
2023/01/02 10:49:36;;;;;;;9.70;5.07;;;;;;;;;;5011513;28;20641;-60
2023/01/02 10:52:04;;;;;;;11.38;5.20;;;;;;;;;;5011920;28;20034;-61
2023/01/02 10:54:29;;;;;;;9.80;5.03;;;;;;;;;;5028272;28;20476;-61
2023/01/02 10:56:56;;;;;;;11.60;5.13;;;;;;;;;;5031136;28;20026;-62
2023/01/02 10:59:23;;;;;;;12.35;5.00;;;;;;;;;;5030947;28;20064;-61
2023/01/02 11:01:52;;;;;;;11.00;4.72;;;;;;;;;;5031157;28;20017;-61
2023/01/02 11:04:20;;;;;;;10.73;4.80;;;;;;;;;;5027677;28;20032;-62
2023/01/02 11:06:51;;;;;;;11.52;4.90;;;;;;;;;;5031370;28;20025;-61
2023/01/02 11:09:24;;;;;;;10.20;5.25;;;;;;;;;;5029111;28;20120;-62
2023/01/02 11:11:51;;;;;;;12.35;5.13;;;;;;;;;;5030969;28;20034;-62
2023/01/02 11:14:19;;;;;;;9.93;4.95;;;;;;;;;;5029067;28;20515;-61
2023/01/02 11:16:44;;;;;;;12.32;5.20;;;;;;;;;;5031424;28;20345;-61
2023/01/02 11:19:16;;;;;;;11.25;5.07;;;;;;;;;;5031033;28;20018;-61
2023/01/02 11:21:42;;;;;;;13.95;5.35;;;;;;;;;;5028129;28;20029;-61
2023/01/02 11:24:13;;;;;;;9.95;5.18;;;;;;;;;;5029222;28;20028;-61
2023/01/02 11:26:38;;;;;;;11.77;5.22;;;;;;;;;;5027184;28;20025;-62
2023/01/02 11:29:06;;;;;;;10.63;5.13;;;;;;;;;;5031029;28;20026;-60
2023/01/02 11:31:31;;;;;;;10.88;5.32;;;;;;;;;;5021331;28;20025;-60
2023/01/02 11:34:06;;;;;;;10.63;4.90;;;;;;;;;;5025948;28;20022;-61
2023/01/02 11:36:31;;;;;;;11.30;4.78;;;;;;;;;;5024187;28;20032;-62
2023/01/02 11:38:57;;;;;;;11.50;4.80;;;;;;;;;;5028691;28;20018;-61
2023/01/02 11:43:47;;;;;;;10.63;4.65;;;;;;;;;;5029106;28;20021;-62
2023/01/02 11:44:20;;;;;;;11.77;4.70;;;;;;;;;;5028074;28;20069;-62
2023/01/02 11:46:46;;;;;;;12.35;5.47;;;;;;;;;;5023667;28;20448;-62
2023/01/02 11:49:16;;;;;;;11.35;5.00;;;;;;;;;;5010472;28;20057;-61
2023/01/02 11:51:41;;;;;;;9.27;4.30;;;;;;;;;;5018480;28;20044;-61
2023/01/02 11:54:16;;;;;;;10.77;5.05;;;;;;;;;;5020654;28;20033;-61
2023/01/02 11:56:43;;;;;;;10.13;4.53;;;;;;;;;;5012987;28;20078;-60
2023/01/02 11:59:23;;;;;;;13.80;5.05;;;;;;;;;;5010854;28;20109;-60
2023/01/02 12:01:54;;;;;;;11.18;4.68;;;;;;;;;;5010849;28;20022;-60
2023/01/02 12:04:21;;;;;;;11.05;4.40;;;;;;;;;;5010881;28;20033;-60
2023/01/02 12:06:53;;;;;;;10.52;4.60;;;;;;;;;;5011263;28;20380;-60
2023/01/02 12:09:18;;;;;;;;;;;;;;;;;;5011455;28;20056;-60
2023/01/02 12:11:46;;;;;;;9.77;4.32;;;;;;;;;;5011041;28;19941;-60
2023/01/02 12:14:20;;;;;;;9.93;4.97;;;;;;;;;;5010183;28;20053;-60
2023/01/02 12:17:00;;;;;;;10.93;4.35;;;;;;;;;;5010857;28;20037;-60
2023/01/02 12:19:43;;;;;;;10.10;4.50;;;;;;;;;;5010769;28;20069;-60
2023/01/02 12:22:24;;;;;;;12.05;4.85;;;;;;;;;;5010577;28;20501;-59
2023/01/02 12:24:55;;;;;;;9.90;4.80;;;;;;;;;;5010577;28;20029;-60
2023/01/02 12:27:26;;;;;;;12.20;5.38;;;;;;;;;;5026930;28;20109;-61
2023/01/02 12:29:54;;;;;;;10.85;5.15;;;;;;;;;;5034709;28;20468;-60
2023/01/02 12:32:39;;;;;;;9.82;4.72;;;;;;;;;;5034480;28;20098;-60
2023/01/02 12:35:15;;;;;;;10.13;4.50;;;;;;;;;;5034376;28;20025;-60
2023/01/02 12:37:57;;;;;;;10.35;4.60;;;;;;;;;;5034529;28;20568;-60
2023/01/02 12:40:30;;;;;;;11.23;4.65;;;;;;;;;;5034225;28;20021;-60
2023/01/02 12:43:15;;;;;;;10.00;4.70;;;;;;;;;;5034237;28;20100;-59
2023/01/02 12:45:49;;;;;;;9.07;4.53;;;;;;;;;;5034370;28;20025;-59
2023/01/02 12:48:23;;;;;;;12.07;4.82;;;;;;;;;;5032204;28;20104;-60
2023/01/02 12:50:57;;;;;;;10.73;4.40;;;;;;;;;;5033917;28;20025;-60
2023/01/02 12:53:37;;;;;;;11.00;4.90;;;;;;;;;;5033888;28;20116;-60
2023/01/02 12:56:02;;;;;;;9.88;4.72;;;;;;;;;;5031556;28;20049;-60
2023/01/02 12:58:27;;;;;;;10.27;4.70;;;;;;;;;;5028553;28;20060;-60
2023/01/02 13:00:52;;;;;;;10.18;4.50;;;;;;;;;;5024678;28;20532;-61
2023/01/02 13:03:38;;;;;;;10.45;4.60;;;;;;;;;;5024018;28;20013;-61
2023/01/02 13:06:07;;;;;;;10.98;4.38;;;;;;;;;;5031638;28;20026;-59
2023/01/02 13:08:38;;;;;;;9.40;4.60;;;;;;;;;;5015889;28;20464;-59
2023/01/02 13:11:04;;;;;;;8.60;4.20;;;;;;;;;;5029797;28;20026;-60
2023/01/02 13:13:32;;;;;;;10.43;4.70;;;;;;;;;;5019272;28;20050;-59
2023/01/02 13:15:58;;;;;;;10.70;4.40;;;;;;;;;;5018367;28;20044;-58
2023/01/02 13:18:45;;;;;;;11.95;4.50;;;;;;;;;;5033402;28;20079;-60
2023/01/02 13:21:22;;;;;;;11.40;4.45;;;;;;;;;;5034132;28;20040;-60
2023/01/02 13:23:47;;;;;;;10.52;4.85;;;;;;;;;;5033423;28;20477;-60
2023/01/02 13:26:14;;;;;;;9.07;4.32;;;;;;;;;;5029228;28;20045;-60
2023/01/02 13:28:39;;;;;;;;;;;;;;;;;;5034043;28;20110;-61
2023/01/02 13:31:06;;;;;;;10.60;4.32;;;;;;;;;;5033674;28;19992;-61
2023/01/02 13:33:42;;;;;;;10.60;4.68;;;;;;;;;;5030525;28;20030;-60
2023/01/02 13:36:20;;;;;;;10.30;4.70;;;;;;;;;;5028568;28;20030;-60
2023/01/02 13:38:47;;;;;;;11.05;4.57;;;;;;;;;;5030517;28;20079;-60
2023/01/02 13:41:14;;;;;;;8.88;4.40;;;;;;;;;;5013143;28;20528;-60
2023/01/02 13:43:39;;;;;;;10.35;4.50;;;;;;;;;;5018538;28;20061;-61
2023/01/02 13:46:04;;;;;;;10.70;4.80;;;;;;;;;;5032360;28;20055;-60
2023/01/02 13:48:30;;;;;;;10.73;4.53;;;;;;;;;;5029893;28;20456;-59
2023/01/02 13:51:11;;;;;;;9.75;4.47;;;;;;;;;;5031248;28;20116;-60
2023/01/02 13:53:43;;;;;;;10.90;4.88;;;;;;;;;;5026281;28;20108;-61
2023/01/02 13:56:15;;;;;;;10.68;4.50;;;;;;;;;;5032691;28;20029;-61
2023/01/02 13:58:51;;;;;;;9.38;4.88;;;;;;;;;;5027210;28;20118;-61
2023/01/02 14:01:19;;;;;;;10.45;4.60;;;;;;;;;;5026024;28;20132;-60
2023/01/02 14:03:44;;;;;;;9.65;4.50;;;;;;;;;;5018252;28;20025;-60
2023/01/02 14:06:26;;;;;;;11.33;4.30;;;;;;;;;;5014399;28;20022;-61
2023/01/02 14:09:04;;;;;;;11.27;4.50;;;;;;;;;;5020808;28;20440;-60
2023/01/02 14:11:31;;;;;;;10.18;4.80;;;;;;;;;;5021463;28;20036;-60
2023/01/02 14:13:56;;;;;;;10.35;4.82;;;;;;;;;;5019206;28;20084;-60
2023/01/02 14:16:21;;;;;;;9.73;3.88;;;;;;;;;;5024054;28;20026;-60
2023/01/02 14:19:05;;;;;;;9.33;4.33;;;;;;;;;;5022565;28;20025;-60
2023/01/02 14:21:32;;;;;;;11.13;4.32;;;;;;;;;;5026826;28;20021;-60
2023/01/02 14:24:00;;;;;;;12.38;4.45;;;;;;;;;;5026554;28;20022;-62
2023/01/02 14:26:28;;;;;;;11.07;4.63;;;;;;;;;;5019371;28;20022;-61
2023/01/02 14:28:55;;;;;;;13.07;4.90;;;;;;;;;;5027265;28;20028;-62
2023/01/02 14:31:31;;;;;;;9.13;4.40;;;;;;;;;;5030476;28;20060;-60
2023/01/02 14:33:57;;;;;;;10.48;4.85;;;;;;;;;;5030449;28;20025;-61
2023/01/02 14:36:33;;;;;;;10.17;4.60;;;;;;;;;;5019568;28;20117;-61
2023/01/02 14:38:58;;;;;;;11.48;4.90;;;;;;;;;;5028666;28;20059;-62
2023/01/02 14:44:26;;;;;;;9.95;4.70;;;;;;;;;;5015891;28;20460;-60